sensor_id;sensor_type;location;lat;lon;timestamp;pressure;altitude;pressure_sealevel;temperature;humidity
59971;BME280;45825;45.434;9.116;2023-02-28T00:01:12;100882.06;;;6.35;100.00
59971;BME280;45825;45.434;9.116;2023-02-28T00:03:37;100882.88;;;6.37;100.00
59971;BME280;45825;45.434;9.116;2023-02-28T00:06:04;100889.06;;;6.34;100.00
59971;BME280;45825;45.434;9.116;2023-02-28T00:08:30;100890.94;;;6.29;100.00
59971;BME280;45825;45.434;9.116;2023-02-28T00:10:55;100901.75;;;6.15;100.00
59971;BME280;45825;45.434;9.116;2023-02-28T00:13:20;100896.59;;;6.13;100.00
59971;BME280;45825;45.434;9.116;2023-02-28T00:15:46;100897.34;;;6.17;100.00
59971;BME280;45825;45.434;9.116;2023-02-28T00:18:11;100902.72;;;6.12;100.00
59971;BME280;45825;45.434;9.116;2023-02-28T00:20:37;100896.63;;;6.12;100.00
59971;BME280;45825;45.434;9.116;2023-02-28T00:23:03;100896.63;;;6.12;100.00
59971;BME280;45825;45.434;9.116;2023-02-28T00:25:28;100900.94;;;6.13;100.00
59971;BME280;45825;45.434;9.116;2023-02-28T00:27:53;100900.91;;;6.14;100.00
59971;BME280;45825;45.434;9.116;2023-02-28T00:30:21;100896.88;;;6.03;100.00
59971;BME280;45825;45.434;9.116;2023-02-28T00:32:47;100906.47;;;6.02;100.00
59971;BME280;45825;45.434;9.116;2023-02-28T00:35:13;100893.50;;;5.97;100.00
59971;BME280;45825;45.434;9.116;2023-02-28T00:37:39;100893.63;;;5.91;100.00
59971;BME280;45825;45.434;9.116;2023-02-28T00:40:05;100897.84;;;5.97;100.00
59971;BME280;45825;45.434;9.116;2023-02-28T00:42:31;100898.88;;;5.91;100.00
59971;BME280;45825;45.434;9.116;2023-02-28T00:44:57;100890.91;;;5.96;100.00
59971;BME280;45825;45.434;9.116;2023-02-28T00:47:22;100889.91;;;6.03;100.00
59971;BME280;45825;45.434;9.116;2023-02-28T00:49:47;100902.06;;;6.04;100.00
59971;BME280;45825;45.434;9.116;2023-02-28T00:52:12;100892.41;;;6.06;100.00
59971;BME280;45825;45.434;9.116;2023-02-28T00:54:38;100897.50;;;6.12;100.00
59971;BME280;45825;45.434;9.116;2023-02-28T00:57:03;100896.50;;;6.17;100.00
59971;BME280;45825;45.434;9.116;2023-02-28T00:59:28;100888.66;;;6.17;100.00
59971;BME280;45825;45.434;9.116;2023-02-28T01:01:54;100893.13;;;6.11;100.00
59971;BME280;45825;45.434;9.116;2023-02-28T01:04:19;100898.47;;;6.08;100.00
59971;BME280;45825;45.434;9.116;2023-02-28T01:06:44;100905.56;;;6.03;100.00
59971;BME280;45825;45.434;9.116;2023-02-28T01:09:10;100906.38;;;6.05;100.00
59971;BME280;45825;45.434;9.116;2023-02-28T01:11:37;100908.22;;;6.00;100.00
59971;BME280;45825;45.434;9.116;2023-02-28T01:14:02;100902.97;;;6.03;100.00
59971;BME280;45825;45.434;9.116;2023-02-28T01:16:29;100913.63;;;5.94;100.00
59971;BME280;45825;45.434;9.116;2023-02-28T01:18:55;100903.84;;;6.00;100.00
59971;BME280;45825;45.434;9.116;2023-02-28T01:21:21;100904.69;;;6.01;100.00
59971;BME280;45825;45.434;9.116;2023-02-28T01:23:47;100906.50;;;5.99;100.00
59971;BME280;45825;45.434;9.116;2023-02-28T01:26:18;100909.97;;;5.99;100.00
59971;BME280;45825;45.434;9.116;2023-02-28T01:28:44;100913.41;;;6.03;100.00
59971;BME280;45825;45.434;9.116;2023-02-28T01:31:10;100916.06;;;6.01;100.00
59971;BME280;45825;45.434;9.116;2023-02-28T01:33:36;100913.72;;;5.89;100.00
59971;BME280;45825;45.434;9.116;2023-02-28T01:36:12;100914.31;;;6.02;100.00
59971;BME280;45825;45.434;9.116;2023-02-28T01:38:38;100918.63;;;6.03;100.00
59971;BME280;45825;45.434;9.116;2023-02-28T01:41:05;100913.16;;;5.78;100.00
59971;BME280;45825;45.434;9.116;2023-02-28T01:46:18;100911.84;;;5.59;100.00
59971;BME280;45825;45.434;9.116;2023-02-28T01:48:51;100913.63;;;5.57;100.00
59971;BME280;45825;45.434;9.116;2023-02-28T01:51:22;100915.16;;;5.66;100.00
59971;BME280;45825;45.434;9.116;2023-02-28T01:53:53;100916.31;;;5.54;100.00
59971;BME280;45825;45.434;9.116;2023-02-28T01:56:24;100911.50;;;5.36;100.00
59971;BME280;45825;45.434;9.116;2023-02-28T01:58:52;100902.75;;;5.38;100.00
59971;BME280;45825;45.434;9.116;2023-02-28T02:01:18;100900.53;;;5.23;100.00
59971;BME280;45825;45.434;9.116;2023-02-28T02:03:53;100911.88;;;5.20;100.00
59971;BME280;45825;45.434;9.116;2023-02-28T02:06:27;100907.56;;;5.19;100.00
59971;BME280;45825;45.434;9.116;2023-02-28T02:08:53;100913.53;;;5.24;100.00
59971;BME280;45825;45.434;9.116;2023-02-28T02:11:20;100910.97;;;5.23;100.00
59971;BME280;45825;45.434;9.116;2023-02-28T02:17:07;100913.28;;;5.35;100.00
59971;BME280;45825;45.434;9.116;2023-02-28T02:25:17;100920.09;;;5.01;100.00
59971;BME280;45825;45.434;9.116;2023-02-28T02:28:17;100915.84;;;4.99;100.00
59971;BME280;45825;45.434;9.116;2023-02-28T02:36:19;100925.59;;;4.89;100.00
59971;BME280;45825;45.434;9.116;2023-02-28T02:38:57;100924.00;;;4.82;100.00
59971;BME280;45825;45.434;9.116;2023-02-28T02:41:40;100930.41;;;4.67;100.00
59971;BME280;45825;45.434;9.116;2023-02-28T02:44:27;100932.06;;;4.69;100.00
59971;BME280;45825;45.434;9.116;2023-02-28T02:47:01;100930.38;;;4.68;100.00
59971;BME280;45825;45.434;9.116;2023-02-28T02:49:32;100933.69;;;4.75;100.00
59971;BME280;45825;45.434;9.116;2023-02-28T02:52:03;100932.72;;;4.81;100.00
59971;BME280;45825;45.434;9.116;2023-02-28T02:54:34;100932.84;;;4.74;100.00
59971;BME280;45825;45.434;9.116;2023-02-28T02:57:04;100932.81;;;4.76;100.00
59971;BME280;45825;45.434;9.116;2023-02-28T02:59:31;100932.81;;;4.76;100.00
59971;BME280;45825;45.434;9.116;2023-02-28T03:02:00;100937.19;;;4.75;100.00
59971;BME280;45825;45.434;9.116;2023-02-28T03:04:32;100931.19;;;4.70;100.00
59971;BME280;45825;45.434;9.116;2023-02-28T03:06:58;100938.03;;;4.76;100.00
59971;BME280;45825;45.434;9.116;2023-02-28T03:09:25;100942.41;;;4.75;100.00
59971;BME280;45825;45.434;9.116;2023-02-28T03:11:54;100936.19;;;4.83;100.00
59971;BME280;45825;45.434;9.116;2023-02-28T03:15:27;100928.19;;;4.89;100.00
59971;BME280;45825;45.434;9.116;2023-02-28T03:20:31;100921.09;;;4.97;100.00
59971;BME280;45825;45.434;9.116;2023-02-28T03:23:19;100929.69;;;5.01;100.00
59971;BME280;45825;45.434;9.116;2023-02-28T03:25:59;100929.72;;;4.99;100.00
59971;BME280;45825;45.434;9.116;2023-02-28T03:28:38;100926.19;;;5.02;100.00
59971;BME280;45825;45.434;9.116;2023-02-28T03:33:51;100937.34;;;5.09;100.00
59971;BME280;45825;45.434;9.116;2023-02-28T03:36:22;100928.63;;;5.10;100.00
59971;BME280;45825;45.434;9.116;2023-02-28T03:38:56;100936.56;;;5.05;100.00
59971;BME280;45825;45.434;9.116;2023-02-28T03:41:27;100932.97;;;5.09;100.00
59971;BME280;45825;45.434;9.116;2023-02-28T03:44:06;100932.13;;;5.10;100.00
59971;BME280;45825;45.434;9.116;2023-02-28T03:46:37;100933.09;;;5.05;100.00
59971;BME280;45825;45.434;9.116;2023-02-28T03:49:17;100925.31;;;5.03;100.00
59971;BME280;45825;45.434;9.116;2023-02-28T03:51:45;100933.81;;;5.11;100.00
59971;BME280;45825;45.434;9.116;2023-02-28T03:54:15;100927.88;;;5.05;100.00
59971;BME280;45825;45.434;9.116;2023-02-28T03:56:47;100927.19;;;4.96;100.00
59971;BME280;45825;45.434;9.116;2023-02-28T03:59:30;100920.25;;;4.95;100.00
59971;BME280;45825;45.434;9.116;2023-02-28T04:01:58;100927.88;;;5.05;100.00
59971;BME280;45825;45.434;9.116;2023-02-28T04:04:23;100923.63;;;5.00;100.00
59971;BME280;45825;45.434;9.116;2023-02-28T04:06:51;100922.69;;;5.03;100.00
59971;BME280;45825;45.434;9.116;2023-02-28T04:09:16;100924.41;;;5.04;100.00
59971;BME280;45825;45.434;9.116;2023-02-28T04:11:44;100934.88;;;5.02;100.00
59971;BME280;45825;45.434;9.116;2023-02-28T04:14:11;100924.44;;;5.02;100.00
59971;BME280;45825;45.434;9.116;2023-02-28T04:16:40;100933.09;;;5.05;100.00
59971;BME280;45825;45.434;9.116;2023-02-28T04:19:07;100933.94;;;5.07;100.00
59971;BME280;45825;45.434;9.116;2023-02-28T04:21:40;100932.34;;;4.99;100.00
59971;BME280;45825;45.434;9.116;2023-02-28T04:24:08;100934.88;;;5.02;100.00
59971;BME280;45825;45.434;9.116;2023-02-28T04:26:39;100930.38;;;5.09;100.00
59971;BME280;45825;45.434;9.116;2023-02-28T04:29:07;100936.28;;;5.17;100.00
59971;BME280;45825;45.434;9.116;2023-02-28T04:31:33;100936.34;;;5.14;100.00
59971;BME280;45825;45.434;9.116;2023-02-28T04:33:59;100938.06;;;5.15;100.00
59971;BME280;45825;45.434;9.116;2023-02-28T04:36:25;100935.66;;;5.06;100.00
59971;BME280;45825;45.434;9.116;2023-02-28T04:38:50;100932.22;;;5.04;100.00
59971;BME280;45825;45.434;9.116;2023-02-28T04:41:16;100939.88;;;5.13;100.00
59971;BME280;45825;45.434;9.116;2023-02-28T04:43:42;100926.00;;;5.11;100.00
59971;BME280;45825;45.434;9.116;2023-02-28T04:46:08;100940.66;;;5.17;100.00
59971;BME280;45825;45.434;9.116;2023-02-28T04:48:38;100940.72;;;5.14;100.00
59971;BME280;45825;45.434;9.116;2023-02-28T04:51:09;100937.19;;;5.16;100.00
59971;BME280;45825;45.434;9.116;2023-02-28T04:53:36;100937.16;;;5.18;100.00
59971;BME280;45825;45.434;9.116;2023-02-28T04:56:02;100952.81;;;5.18;100.00
59971;BME280;45825;45.434;9.116;2023-02-28T04:58:28;100945.00;;;5.16;100.00
59971;BME280;45825;45.434;9.116;2023-02-28T05:01:02;100948.53;;;5.14;100.00
59971;BME280;45825;45.434;9.116;2023-02-28T05:03:27;100940.66;;;5.17;100.00
59971;BME280;45825;45.434;9.116;2023-02-28T05:05:53;100950.28;;;5.15;100.00
59971;BME280;45825;45.434;9.116;2023-02-28T05:08:18;100945.06;;;5.15;100.00
59971;BME280;45825;45.434;9.116;2023-02-28T05:10:43;100945.94;;;5.14;100.00
59971;BME280;45825;45.434;9.116;2023-02-28T05:13:11;100951.00;;;5.22;100.00
59971;BME280;45825;45.434;9.116;2023-02-28T05:15:37;100947.50;;;5.23;100.00
59971;BME280;45825;45.434;9.116;2023-02-28T05:18:02;100950.13;;;5.21;100.00
59971;BME280;45825;45.434;9.116;2023-02-28T05:20:27;100954.44;;;5.22;100.00
59971;BME280;45825;45.434;9.116;2023-02-28T05:22:53;100954.53;;;5.19;100.00
59971;BME280;45825;45.434;9.116;2023-02-28T05:25:20;100951.03;;;5.20;100.00
59971;BME280;45825;45.434;9.116;2023-02-28T05:27:46;100945.72;;;5.23;100.00
59971;BME280;45825;45.434;9.116;2023-02-28T05:30:12;100946.59;;;5.24;100.00
59971;BME280;45825;45.434;9.116;2023-02-28T05:32:38;100936.09;;;5.25;100.00
59971;BME280;45825;45.434;9.116;2023-02-28T05:35:04;100937.84;;;5.26;100.00
59971;BME280;45825;45.434;9.116;2023-02-28T05:37:29;100942.31;;;5.20;100.00
59971;BME280;45825;45.434;9.116;2023-02-28T05:39:54;100951.81;;;5.24;100.00
59971;BME280;45825;45.434;9.116;2023-02-28T05:42:20;100952.84;;;5.16;100.00
59971;BME280;45825;45.434;9.116;2023-02-28T05:44:45;100958.13;;;5.13;100.00
59971;BME280;45825;45.434;9.116;2023-02-28T05:47:11;100959.75;;;5.19;100.00
59971;BME280;45825;45.434;9.116;2023-02-28T05:49:39;100953.66;;;5.18;100.00
59971;BME280;45825;45.434;9.116;2023-02-28T05:52:04;100958.97;;;5.14;100.00
59971;BME280;45825;45.434;9.116;2023-02-28T05:54:30;100960.75;;;5.13;100.00
59971;BME280;45825;45.434;9.116;2023-02-28T05:56:55;100966.03;;;5.10;100.00
59971;BME280;45825;45.434;9.116;2023-02-28T05:59:20;100958.09;;;5.15;100.00
59971;BME280;45825;45.434;9.116;2023-02-28T06:01:46;100949.41;;;5.14;100.00
59971;BME280;45825;45.434;9.116;2023-02-28T06:04:16;100958.81;;;5.22;100.00
59971;BME280;45825;45.434;9.116;2023-02-28T06:06:45;100957.06;;;5.22;100.00
59971;BME280;45825;45.434;9.116;2023-02-28T06:09:10;100958.78;;;5.23;100.00
59971;BME280;45825;45.434;9.116;2023-02-28T06:11:36;100957.03;;;5.24;100.00
59971;BME280;45825;45.434;9.116;2023-02-28T06:14:03;100953.50;;;5.26;100.00
59971;BME280;45825;45.434;9.116;2023-02-28T06:16:30;100958.66;;;5.29;100.00
59971;BME280;45825;45.434;9.116;2023-02-28T06:19:00;100955.97;;;5.32;100.00
59971;BME280;45825;45.434;9.116;2023-02-28T06:21:26;100961.16;;;5.34;100.00
59971;BME280;45825;45.434;9.116;2023-02-28T06:23:52;100962.09;;;5.30;100.00
59971;BME280;45825;45.434;9.116;2023-02-28T06:26:18;100962.19;;;5.25;100.00
59971;BME280;45825;45.434;9.116;2023-02-28T06:28:43;100959.50;;;5.30;100.00
59971;BME280;45825;45.434;9.116;2023-02-28T06:31:10;100969.88;;;5.33;100.00
59971;BME280;45825;45.434;9.116;2023-02-28T06:33:37;100967.19;;;5.38;100.00
59971;BME280;45825;45.434;9.116;2023-02-28T06:36:04;100971.41;;;5.42;100.00
59971;BME280;45825;45.434;9.116;2023-02-28T06:38:30;100967.91;;;5.43;100.00
59971;BME280;45825;45.434;9.116;2023-02-28T06:40:56;100961.78;;;5.45;100.00
59971;BME280;45825;45.434;9.116;2023-02-28T06:43:22;100963.34;;;5.53;100.00
59971;BME280;45825;45.434;9.116;2023-02-28T06:45:47;100958.78;;;5.61;100.00
59971;BME280;45825;45.434;9.116;2023-02-28T06:48:13;100972.94;;;5.52;100.00
59971;BME280;45825;45.434;9.116;2023-02-28T06:50:38;100979.19;;;5.45;100.00
59971;BME280;45825;45.434;9.116;2023-02-28T06:53:04;100968.53;;;5.54;100.00
59971;BME280;45825;45.434;9.116;2023-02-28T06:55:29;100971.94;;;5.58;100.00
59971;BME280;45825;45.434;9.116;2023-02-28T06:57:54;100963.19;;;5.59;100.00
59971;BME280;45825;45.434;9.116;2023-02-28T07:00:20;100977.16;;;5.58;100.00
59971;BME280;45825;45.434;9.116;2023-02-28T07:02:46;100981.03;;;5.40;100.00
59971;BME280;45825;45.434;9.116;2023-02-28T07:05:12;100982.78;;;5.39;100.00
59971;BME280;45825;45.434;9.116;2023-02-28T07:07:37;100982.16;;;5.28;100.00
59971;BME280;45825;45.434;9.116;2023-02-28T07:10:06;100993.75;;;5.16;100.00
59971;BME280;45825;45.434;9.116;2023-02-28T07:12:31;100991.81;;;5.24;100.00
59971;BME280;45825;45.434;9.116;2023-02-28T07:14:56;100990.97;;;5.22;100.00
59971;BME280;45825;45.434;9.116;2023-02-28T07:17:22;101002.19;;;5.27;100.00
59971;BME280;45825;45.434;9.116;2023-02-28T07:19:47;101001.50;;;5.19;100.00
59971;BME280;45825;45.434;9.116;2023-02-28T07:22:12;101001.41;;;5.24;100.00
59971;BME280;45825;45.434;9.116;2023-02-28T07:24:38;100996.88;;;5.32;100.00
59971;BME280;45825;45.434;9.116;2023-02-28T07:27:03;101005.47;;;5.36;100.00
59971;BME280;45825;45.434;9.116;2023-02-28T07:29:29;101005.72;;;5.25;100.00
59971;BME280;45825;45.434;9.116;2023-02-28T07:31:55;100996.88;;;5.32;100.00
59971;BME280;45825;45.434;9.116;2023-02-28T07:34:21;101011.75;;;5.27;100.00
59971;BME280;45825;45.434;9.116;2023-02-28T07:36:47;101015.16;;;5.30;100.00
59971;BME280;45825;45.434;9.116;2023-02-28T07:39:12;101018.50;;;5.37;100.00
59971;BME280;45825;45.434;9.116;2023-02-28T07:41:37;101005.47;;;5.36;100.00
59971;BME280;45825;45.434;9.116;2023-02-28T07:44:09;101019.31;;;5.39;100.00
59971;BME280;45825;45.434;9.116;2023-02-28T07:46:34;101017.81;;;5.29;100.00
59971;BME280;45825;45.434;9.116;2023-02-28T07:49:01;101008.06;;;5.37;100.00
59971;BME280;45825;45.434;9.116;2023-02-28T07:51:28;101016.66;;;5.42;100.00
59971;BME280;45825;45.434;9.116;2023-02-28T07:53:53;101010.59;;;5.40;100.00
59971;BME280;45825;45.434;9.116;2023-02-28T07:56:19;101017.69;;;5.35;100.00
59971;BME280;45825;45.434;9.116;2023-02-28T07:58:44;101015.81;;;5.40;100.00
59971;BME280;45825;45.434;9.116;2023-02-28T08:01:10;101017.38;;;5.49;100.00
59971;BME280;45825;45.434;9.116;2023-02-28T08:03:37;101021.72;;;5.50;100.00
59971;BME280;45825;45.434;9.116;2023-02-28T08:06:04;101023.25;;;5.59;100.00
59971;BME280;45825;45.434;9.116;2023-02-28T08:08:30;101035.72;;;5.46;100.00
59971;BME280;45825;45.434;9.116;2023-02-28T08:10:59;101026.84;;;5.53;100.00
59971;BME280;45825;45.434;9.116;2023-02-28T08:13:26;101043.53;;;5.46;100.00
59971;BME280;45825;45.434;9.116;2023-02-28T08:15:52;101030.28;;;5.55;100.00
59971;BME280;45825;45.434;9.116;2023-02-28T08:18:19;101032.00;;;5.56;100.00
59971;BME280;45825;45.434;9.116;2023-02-28T08:20:44;101036.19;;;5.65;100.00
59971;BME280;45825;45.434;9.116;2023-02-28T08:23:09;101029.97;;;5.71;100.00
59971;BME280;45825;45.434;9.116;2023-02-28T08:25:34;101037.91;;;5.65;100.00
59971;BME280;45825;45.434;9.116;2023-02-28T08:28:00;101035.03;;;5.77;100.00
59971;BME280;45825;45.434;9.116;2023-02-28T08:30:25;101039.41;;;5.77;100.00
59971;BME280;45825;45.434;9.116;2023-02-28T08:32:51;101036.78;;;5.77;100.00
59971;BME280;45825;45.434;9.116;2023-02-28T08:35:16;101031.50;;;5.80;100.00
59971;BME280;45825;45.434;9.116;2023-02-28T08:37:41;101033.03;;;5.88;100.00
59971;BME280;45825;45.434;9.116;2023-02-28T08:40:07;101033.78;;;5.94;100.00
59971;BME280;45825;45.434;9.116;2023-02-28T08:42:33;101036.28;;;5.98;100.00
59971;BME280;45825;45.434;9.116;2023-02-28T08:44:58;101032.72;;;6.04;100.00
59971;BME280;45825;45.434;9.116;2023-02-28T08:47:24;101032.41;;;6.17;100.00
59971;BME280;45825;45.434;9.116;2023-02-28T08:49:49;101038.44;;;6.19;100.00
59971;BME280;45825;45.434;9.116;2023-02-28T08:52:14;101038.34;;;6.22;100.00
59971;BME280;45825;45.434;9.116;2023-02-28T08:54:40;101032.44;;;6.15;100.00
59971;BME280;45825;45.434;9.116;2023-02-28T08:57:05;101033.81;;;6.30;100.00
59971;BME280;45825;45.434;9.116;2023-02-28T08:59:31;101038.72;;;6.08;100.00
59971;BME280;45825;45.434;9.116;2023-02-28T09:01:57;101038.06;;;6.34;100.00
59971;BME280;45825;45.434;9.116;2023-02-28T09:04:23;101034.38;;;6.41;100.00
59971;BME280;45825;45.434;9.116;2023-02-28T09:06:48;101042.34;;;6.37;97.47
59971;BME280;45825;45.434;9.116;2023-02-28T09:09:14;101041.31;;;6.42;93.52
59971;BME280;45825;45.434;9.116;2023-02-28T09:11:39;101041.75;;;6.25;94.59
59971;BME280;45825;45.434;9.116;2023-02-28T09:14:05;101043.59;;;6.56;93.41
59971;BME280;45825;45.434;9.116;2023-02-28T09:16:34;101044.16;;;6.33;90.18
59971;BME280;45825;45.434;9.116;2023-02-28T09:18:59;101044.06;;;6.38;92.19
59971;BME280;45825;45.434;9.116;2023-02-28T09:21:25;101054.97;;;6.54;91.79
59971;BME280;45825;45.434;9.116;2023-02-28T09:23:50;101051.53;;;6.53;91.92
59971;BME280;45825;45.434;9.116;2023-02-28T09:26:22;101054.91;;;6.57;91.45
59971;BME280;45825;45.434;9.116;2023-02-28T09:28:48;101059.13;;;6.63;90.68
59971;BME280;45825;45.434;9.116;2023-02-28T09:31:20;101058.59;;;6.50;92.66
59971;BME280;45825;45.434;9.116;2023-02-28T09:33:51;101058.56;;;6.51;90.61
59971;BME280;45825;45.434;9.116;2023-02-28T09:36:17;101061.13;;;6.53;91.67
59971;BME280;45825;45.434;9.116;2023-02-28T09:38:42;101061.69;;;6.64;91.99
59971;BME280;45825;45.434;9.116;2023-02-28T09:41:22;101068.56;;;6.68;91.23
59971;BME280;45825;45.434;9.116;2023-02-28T09:43:55;101060.53;;;6.41;90.75
59971;BME280;45825;45.434;9.116;2023-02-28T09:46:32;101057.78;;;6.81;90.28
59971;BME280;45825;45.434;9.116;2023-02-28T09:49:06;101059.84;;;6.68;90.41
59971;BME280;45825;45.434;9.116;2023-02-28T09:51:40;101059.97;;;6.96;90.76
59971;BME280;45825;45.434;9.116;2023-02-28T09:54:20;101059.84;;;7.01;91.91
59971;BME280;45825;45.434;9.116;2023-02-28T09:56:54;101059.75;;;7.36;90.44
59971;BME280;45825;45.434;9.116;2023-02-28T10:01:57;101062.78;;;7.20;90.04
59971;BME280;45825;45.434;9.116;2023-02-28T10:04:51;101068.91;;;7.21;81.84
59971;BME280;45825;45.434;9.116;2023-02-28T10:13:12;101053.63;;;7.65;79.16
59971;BME280;45825;45.434;9.116;2023-02-28T10:15:38;101058.69;;;7.72;78.53
59971;BME280;45825;45.434;9.116;2023-02-28T10:18:05;101056.44;;;7.88;78.90
59971;BME280;45825;45.434;9.116;2023-02-28T10:20:37;101059.84;;;8.18;77.96
59971;BME280;45825;45.434;9.116;2023-02-28T10:23:28;101055.53;;;7.89;77.58
59971;BME280;45825;45.434;9.116;2023-02-28T10:26:11;101050.75;;;8.29;76.38
59971;BME280;45825;45.434;9.116;2023-02-28T10:28:38;101053.81;;;7.88;72.18
59971;BME280;45825;45.434;9.116;2023-02-28T10:31:03;101056.16;;;8.24;70.60
59971;BME280;45825;45.434;9.116;2023-02-28T10:33:34;101057.72;;;8.30;69.66
59971;BME280;45825;45.434;9.116;2023-02-28T10:36:00;101055.63;;;8.39;69.26
59971;BME280;45825;45.434;9.116;2023-02-28T10:38:32;101053.50;;;8.25;67.29
59971;BME280;45825;45.434;9.116;2023-02-28T10:41:10;101058.97;;;8.18;68.81
59971;BME280;45825;45.434;9.116;2023-02-28T10:43:37;101054.06;;;8.34;66.65
59971;BME280;45825;45.434;9.116;2023-02-28T10:51:07;101059.84;;;8.96;64.67
59971;BME280;45825;45.434;9.116;2023-02-28T10:53:36;101045.84;;;9.67;65.51
59971;BME280;45825;45.434;9.116;2023-02-28T10:56:05;101037.28;;;9.84;60.81
59971;BME280;45825;45.434;9.116;2023-02-28T11:01:48;101042.78;;;9.78;55.52
59971;BME280;45825;45.434;9.116;2023-02-28T11:04:32;101028.63;;;10.25;54.30
59971;BME280;45825;45.434;9.116;2023-02-28T11:09:48;101022.59;;;11.04;52.11
59971;BME280;45825;45.434;9.116;2023-02-28T11:12:36;101016.00;;;11.90;43.14
59971;BME280;45825;45.434;9.116;2023-02-28T11:15:26;101014.31;;;12.07;43.95
59971;BME280;45825;45.434;9.116;2023-02-28T11:20:57;101005.81;;;11.82;43.05
59971;BME280;45825;45.434;9.116;2023-02-28T11:23:29;101005.31;;;11.18;44.33
59971;BME280;45825;45.434;9.116;2023-02-28T11:25:59;100996.38;;;10.82;45.61
59971;BME280;45825;45.434;9.116;2023-02-28T11:28:34;100992.63;;;11.45;43.91
59971;BME280;45825;45.434;9.116;2023-02-28T11:33:52;100987.50;;;11.23;43.94
59971;BME280;45825;45.434;9.116;2023-02-28T11:36:29;100986.00;;;11.56;43.48
59971;BME280;45825;45.434;9.116;2023-02-28T11:39:00;100972.19;;;12.23;40.98
59971;BME280;45825;45.434;9.116;2023-02-28T11:47:06;100960.13;;;13.66;38.20
59971;BME280;45825;45.434;9.116;2023-02-28T11:49:46;100958.97;;;15.19;37.29
59971;BME280;45825;45.434;9.116;2023-02-28T11:55:11;100948.66;;;14.27;36.98
59971;BME280;45825;45.434;9.116;2023-02-28T12:06:38;100930.31;;;18.29;30.75
59971;BME280;45825;45.434;9.116;2023-02-28T12:09:11;100922.66;;;18.93;29.51
59971;BME280;45825;45.434;9.116;2023-02-28T12:14:25;100919.03;;;20.65;27.78
59971;BME280;45825;45.434;9.116;2023-02-28T12:22:22;100894.00;;;22.34;25.57
59971;BME280;45825;45.434;9.116;2023-02-28T12:25:21;100893.78;;;22.55;26.04
59971;BME280;45825;45.434;9.116;2023-02-28T12:27:48;100889.03;;;23.13;24.54
59971;BME280;45825;45.434;9.116;2023-02-28T12:32:55;100889.47;;;21.77;25.44
59971;BME280;45825;45.434;9.116;2023-02-28T12:35:26;100879.38;;;22.56;24.59
59971;BME280;45825;45.434;9.116;2023-02-28T12:38:02;100884.69;;;21.21;25.36
59971;BME280;45825;45.434;9.116;2023-02-28T12:40:41;100876.78;;;20.90;26.38
59971;BME280;45825;45.434;9.116;2023-02-28T12:43:09;100877.03;;;22.33;25.20
59971;BME280;45825;45.434;9.116;2023-02-28T12:48:16;100873.81;;;19.69;27.90
59971;BME280;45825;45.434;9.116;2023-02-28T12:50:45;100871.00;;;18.50;29.19
59971;BME280;45825;45.434;9.116;2023-02-28T12:53:28;100872.91;;;18.13;29.63
59971;BME280;45825;45.434;9.116;2023-02-28T12:58:42;100872.53;;;18.07;30.43
59971;BME280;45825;45.434;9.116;2023-02-28T13:07:05;100857.78;;;18.37;29.21
59971;BME280;45825;45.434;9.116;2023-02-28T13:09:37;100845.81;;;20.47;27.82
59971;BME280;45825;45.434;9.116;2023-02-28T13:12:15;100853.84;;;17.84;30.63
59971;BME280;45825;45.434;9.116;2023-02-28T13:14:42;100849.50;;;17.83;31.67
59971;BME280;45825;45.434;9.116;2023-02-28T13:25:01;100840.84;;;18.04;32.48
59971;BME280;45825;45.434;9.116;2023-02-28T13:27:39;100834.03;;;19.12;31.05
59971;BME280;45825;45.434;9.116;2023-02-28T13:38:52;100839.94;;;17.92;33.34
59971;BME280;45825;45.434;9.116;2023-02-28T13:44:03;100838.19;;;14.16;37.24
59971;BME280;45825;45.434;9.116;2023-02-28T13:46:35;100843.06;;;12.69;40.25
59971;BME280;45825;45.434;9.116;2023-02-28T13:51:49;100820.16;;;15.07;38.18
59971;BME280;45825;45.434;9.116;2023-02-28T13:57:38;100807.53;;;15.51;35.66
59971;BME280;45825;45.434;9.116;2023-02-28T14:00:42;100805.34;;;17.33;33.73
59971;BME280;45825;45.434;9.116;2023-02-28T14:03:27;100800.91;;;17.09;33.51
59971;BME280;45825;45.434;9.116;2023-02-28T14:08:55;100800.84;;;15.71;35.20
59971;BME280;45825;45.434;9.116;2023-02-28T14:11:36;100793.63;;;15.47;36.13
59971;BME280;45825;45.434;9.116;2023-02-28T14:14:03;100794.56;;;13.03;39.84
59971;BME280;45825;45.434;9.116;2023-02-28T14:16:44;100798.94;;;14.23;39.44
59971;BME280;45825;45.434;9.116;2023-02-28T14:21:38;100798.00;;;12.56;43.21
59971;BME280;45825;45.434;9.116;2023-02-28T14:29:30;100798.75;;;12.26;42.13
59971;BME280;45825;45.434;9.116;2023-02-28T14:34:50;100791.72;;;12.75;41.80
59971;BME280;45825;45.434;9.116;2023-02-28T14:37:36;100786.16;;;14.86;37.59
59971;BME280;45825;45.434;9.116;2023-02-28T14:40:03;100789.03;;;12.91;40.77
59971;BME280;45825;45.434;9.116;2023-02-28T14:42:36;100779.41;;;13.82;39.43
59971;BME280;45825;45.434;9.116;2023-02-28T14:45:19;100773.28;;;15.48;36.67
59971;BME280;45825;45.434;9.116;2023-02-28T14:47:45;100765.84;;;16.80;35.85
59971;BME280;45825;45.434;9.116;2023-02-28T14:50:19;100770.72;;;15.85;35.71
59971;BME280;45825;45.434;9.116;2023-02-28T14:52:45;100768.59;;;15.64;36.16
59971;BME280;45825;45.434;9.116;2023-02-28T14:55:15;100759.78;;;15.51;36.25
59971;BME280;45825;45.434;9.116;2023-02-28T14:57:44;100764.31;;;15.10;37.45
59971;BME280;45825;45.434;9.116;2023-02-28T15:00:25;100764.56;;;15.46;35.68
59971;BME280;45825;45.434;9.116;2023-02-28T15:02:50;100771.22;;;13.56;39.80
59971;BME280;45825;45.434;9.116;2023-02-28T15:05:23;100770.22;;;12.33;42.13
59971;BME280;45825;45.434;9.116;2023-02-28T15:08:01;100770.94;;;11.69;43.42